sensor_id;sensor_type;location;lat;lon;timestamp;noise_LAeq;noise_LA_min;noise_LA_max;noise_LA01;noise_LA95
74234;Laerm;62591;55.764;37.718;2023-01-09T00:00:09;39.05;35.02;52.35;;
74234;Laerm;62591;55.764;37.718;2023-01-09T00:02:38;40.34;35.71;48.76;;
74234;Laerm;62591;55.764;37.718;2023-01-09T00:05:08;44.93;36.20;62.60;;
74234;Laerm;62591;55.764;37.718;2023-01-09T00:07:37;42.71;35.29;51.82;;
74234;Laerm;62591;55.764;37.718;2023-01-09T00:10:10;39.06;34.87;45.80;;
74234;Laerm;62591;55.764;37.718;2023-01-09T00:12:40;39.75;35.06;47.96;;
74234;Laerm;62591;55.764;37.718;2023-01-09T00:15:10;45.05;36.14;54.56;;
74234;Laerm;62591;55.764;37.718;2023-01-09T00:17:39;42.75;35.91;56.67;;
74234;Laerm;62591;55.764;37.718;2023-01-09T00:20:09;39.07;35.03;43.78;;
74234;Laerm;62591;55.764;37.718;2023-01-09T00:22:37;41.75;35.65;54.18;;
74234;Laerm;62591;55.764;37.718;2023-01-09T00:25:07;41.66;34.73;53.64;;
74234;Laerm;62591;55.764;37.718;2023-01-09T00:27:37;38.33;34.03;54.48;;
74234;Laerm;62591;55.764;37.718;2023-01-09T00:30:07;38.02;33.49;48.69;;
74234;Laerm;62591;55.764;37.718;2023-01-09T00:32:36;37.98;33.80;45.41;;
74234;Laerm;62591;55.764;37.718;2023-01-09T00:35:05;39.23;33.77;53.98;;
74234;Laerm;62591;55.764;37.718;2023-01-09T00:37:34;37.76;33.89;43.20;;
74234;Laerm;62591;55.764;37.718;2023-01-09T00:40:03;42.19;33.28;51.56;;
74234;Laerm;62591;55.764;37.718;2023-01-09T00:42:32;36.97;33.18;50.44;;
74234;Laerm;62591;55.764;37.718;2023-01-09T00:45:08;41.10;34.72;58.31;;
74234;Laerm;62591;55.764;37.718;2023-01-09T00:47:42;47.98;34.26;64.50;;
74234;Laerm;62591;55.764;37.718;2023-01-09T00:50:20;37.59;33.17;55.01;;
74234;Laerm;62591;55.764;37.718;2023-01-09T00:52:52;38.41;34.02;46.19;;
74234;Laerm;62591;55.764;37.718;2023-01-09T00:55:22;38.39;33.89;45.52;;
74234;Laerm;62591;55.764;37.718;2023-01-09T00:57:50;54.93;33.77;75.77;;
74234;Laerm;62591;55.764;37.718;2023-01-09T01:00:20;52.70;34.83;76.91;;
74234;Laerm;62591;55.764;37.718;2023-01-09T01:02:50;37.28;33.34;50.43;;
74234;Laerm;62591;55.764;37.718;2023-01-09T01:05:19;38.22;33.56;48.73;;
74234;Laerm;62591;55.764;37.718;2023-01-09T01:08:09;40.33;35.41;52.20;;
74234;Laerm;62591;55.764;37.718;2023-01-09T01:10:38;46.28;34.65;57.96;;
74234;Laerm;62591;55.764;37.718;2023-01-09T01:13:10;41.08;35.48;51.94;;
74234;Laerm;62591;55.764;37.718;2023-01-09T01:15:42;39.44;33.91;50.64;;
74234;Laerm;62591;55.764;37.718;2023-01-09T01:18:13;37.34;33.52;46.44;;
74234;Laerm;62591;55.764;37.718;2023-01-09T01:20:44;37.68;34.16;52.27;;
74234;Laerm;62591;55.764;37.718;2023-01-09T01:23:16;37.60;33.37;41.99;;
74234;Laerm;62591;55.764;37.718;2023-01-09T01:25:46;45.35;34.99;53.80;;
74234;Laerm;62591;55.764;37.718;2023-01-09T01:28:15;37.38;33.39;42.73;;
74234;Laerm;62591;55.764;37.718;2023-01-09T01:30:45;37.51;33.73;44.03;;
74234;Laerm;62591;55.764;37.718;2023-01-09T01:33:15;46.04;35.98;58.02;;
74234;Laerm;62591;55.764;37.718;2023-01-09T01:35:44;40.57;35.38;47.41;;
74234;Laerm;62591;55.764;37.718;2023-01-09T01:38:14;38.05;34.41;45.40;;
74234;Laerm;62591;55.764;37.718;2023-01-09T01:40:43;38.42;33.60;50.53;;
74234;Laerm;62591;55.764;37.718;2023-01-09T01:43:11;39.30;33.83;46.44;;
74234;Laerm;62591;55.764;37.718;2023-01-09T01:45:40;39.29;34.47;52.85;;
74234;Laerm;62591;55.764;37.718;2023-01-09T01:48:14;41.35;34.05;56.45;;
74234;Laerm;62591;55.764;37.718;2023-01-09T01:50:46;44.20;34.03;56.41;;
74234;Laerm;62591;55.764;37.718;2023-01-09T01:53:20;39.21;34.56;51.60;;
74234;Laerm;62591;55.764;37.718;2023-01-09T01:56:02;38.03;34.43;49.37;;
74234;Laerm;62591;55.764;37.718;2023-01-09T01:58:32;46.30;35.26;56.19;;
74234;Laerm;62591;55.764;37.718;2023-01-09T02:01:01;38.47;33.80;51.24;;
74234;Laerm;62591;55.764;37.718;2023-01-09T02:03:35;51.68;34.53;71.92;;
74234;Laerm;62591;55.764;37.718;2023-01-09T02:06:06;40.53;34.56;51.96;;
74234;Laerm;62591;55.764;37.718;2023-01-09T02:08:35;46.59;34.71;57.60;;
74234;Laerm;62591;55.764;37.718;2023-01-09T02:11:05;38.75;34.95;45.16;;
74234;Laerm;62591;55.764;37.718;2023-01-09T02:13:37;42.42;35.29;52.81;;
74234;Laerm;62591;55.764;37.718;2023-01-09T02:16:21;39.68;34.71;48.91;;
74234;Laerm;62591;55.764;37.718;2023-01-09T02:19:00;42.36;34.64;52.96;;
74234;Laerm;62591;55.764;37.718;2023-01-09T02:21:50;45.58;35.23;59.03;;
74234;Laerm;62591;55.764;37.718;2023-01-09T02:24:53;44.47;35.64;63.09;;
74234;Laerm;62591;55.764;37.718;2023-01-09T02:27:47;40.44;34.23;49.63;;
74234;Laerm;62591;55.764;37.718;2023-01-09T02:30:30;47.33;35.66;72.00;;
74234;Laerm;62591;55.764;37.718;2023-01-09T02:33:23;42.49;35.81;49.66;;
74234;Laerm;62591;55.764;37.718;2023-01-09T02:36:11;42.03;35.75;55.88;;
74234;Laerm;62591;55.764;37.718;2023-01-09T02:38:52;49.57;36.03;64.86;;
74234;Laerm;62591;55.764;37.718;2023-01-09T02:41:27;43.52;37.17;54.99;;
74234;Laerm;62591;55.764;37.718;2023-01-09T02:44:14;41.51;35.81;49.87;;
74234;Laerm;62591;55.764;37.718;2023-01-09T02:46:44;45.47;37.09;55.52;;
74234;Laerm;62591;55.764;37.718;2023-01-09T02:49:15;41.70;36.31;50.07;;
74234;Laerm;62591;55.764;37.718;2023-01-09T02:51:50;45.06;38.36;55.34;;
74234;Laerm;62591;55.764;37.718;2023-01-09T02:54:27;43.51;36.32;61.04;;
74234;Laerm;62591;55.764;37.718;2023-01-09T02:57:17;44.84;36.00;56.01;;
74234;Laerm;62591;55.764;37.718;2023-01-09T03:00:00;41.51;35.10;49.26;;
74234;Laerm;62591;55.764;37.718;2023-01-09T03:02:41;45.67;36.58;63.76;;
74234;Laerm;62591;55.764;37.718;2023-01-09T03:05:17;43.22;36.57;52.18;;
74234;Laerm;62591;55.764;37.718;2023-01-09T03:07:51;47.60;37.70;68.42;;
74234;Laerm;62591;55.764;37.718;2023-01-09T03:10:27;41.59;36.15;49.22;;
74234;Laerm;62591;55.764;37.718;2023-01-09T03:12:59;41.22;35.96;52.20;;
74234;Laerm;62591;55.764;37.718;2023-01-09T03:15:34;48.79;36.99;66.22;;
74234;Laerm;62591;55.764;37.718;2023-01-09T03:18:07;44.53;37.64;55.17;;
74234;Laerm;62591;55.764;37.718;2023-01-09T03:20:37;47.45;36.58;61.32;;
74234;Laerm;62591;55.764;37.718;2023-01-09T03:23:07;44.55;35.54;55.92;;
74234;Laerm;62591;55.764;37.718;2023-01-09T03:25:35;43.36;36.18;49.06;;
74234;Laerm;62591;55.764;37.718;2023-01-09T03:28:05;41.42;35.53;47.84;;
74234;Laerm;62591;55.764;37.718;2023-01-09T03:30:35;45.22;37.60;52.88;;
74234;Laerm;62591;55.764;37.718;2023-01-09T03:33:06;45.65;36.61;61.13;;
74234;Laerm;62591;55.764;37.718;2023-01-09T03:35:35;46.06;37.00;54.10;;
74234;Laerm;62591;55.764;37.718;2023-01-09T03:38:04;45.16;37.57;51.23;;
74234;Laerm;62591;55.764;37.718;2023-01-09T03:40:34;48.03;37.50;68.99;;
74234;Laerm;62591;55.764;37.718;2023-01-09T03:43:03;44.48;38.27;49.98;;
74234;Laerm;62591;55.764;37.718;2023-01-09T03:45:32;49.52;38.96;70.58;;
74234;Laerm;62591;55.764;37.718;2023-01-09T03:48:01;45.99;36.86;53.59;;
74234;Laerm;62591;55.764;37.718;2023-01-09T03:50:31;43.63;38.59;54.96;;
74234;Laerm;62591;55.764;37.718;2023-01-09T03:53:00;44.57;37.40;52.95;;
74234;Laerm;62591;55.764;37.718;2023-01-09T03:55:28;46.65;38.12;58.52;;
74234;Laerm;62591;55.764;37.718;2023-01-09T03:57:57;49.17;40.59;61.21;;
74234;Laerm;62591;55.764;37.718;2023-01-09T04:00:25;44.26;39.53;52.38;;
74234;Laerm;62591;55.764;37.718;2023-01-09T04:02:54;47.44;37.37;58.76;;
74234;Laerm;62591;55.764;37.718;2023-01-09T04:05:23;46.27;38.96;69.67;;
74234;Laerm;62591;55.764;37.718;2023-01-09T04:07:53;47.15;37.46;58.10;;
74234;Laerm;62591;55.764;37.718;2023-01-09T04:10:21;45.81;39.14;51.53;;
74234;Laerm;62591;55.764;37.718;2023-01-09T04:12:50;47.25;38.83;69.86;;
74234;Laerm;62591;55.764;37.718;2023-01-09T04:15:19;50.64;45.70;61.41;;
74234;Laerm;62591;55.764;37.718;2023-01-09T04:17:47;50.53;41.87;67.53;;
74234;Laerm;62591;55.764;37.718;2023-01-09T04:20:16;49.92;43.16;60.65;;
74234;Laerm;62591;55.764;37.718;2023-01-09T04:22:45;48.48;43.41;59.77;;
74234;Laerm;62591;55.764;37.718;2023-01-09T04:25:16;58.05;43.31;88.09;;
74234;Laerm;62591;55.764;37.718;2023-01-09T04:27:44;48.07;42.54;63.62;;
74234;Laerm;62591;55.764;37.718;2023-01-09T04:30:15;48.42;41.21;59.79;;
74234;Laerm;62591;55.764;37.718;2023-01-09T04:32:44;49.40;43.86;61.06;;
74234;Laerm;62591;55.764;37.718;2023-01-09T04:35:13;47.61;41.35;57.25;;
74234;Laerm;62591;55.764;37.718;2023-01-09T04:37:41;46.23;40.64;63.16;;
74234;Laerm;62591;55.764;37.718;2023-01-09T04:40:12;48.22;42.54;56.77;;
74234;Laerm;62591;55.764;37.718;2023-01-09T04:42:42;49.85;42.83;61.00;;
74234;Laerm;62591;55.764;37.718;2023-01-09T04:45:11;46.62;41.48;55.38;;
74234;Laerm;62591;55.764;37.718;2023-01-09T04:47:42;50.05;42.42;64.48;;
74234;Laerm;62591;55.764;37.718;2023-01-09T04:50:12;46.76;42.09;53.23;;
74234;Laerm;62591;55.764;37.718;2023-01-09T04:52:40;49.44;42.96;68.32;;
74234;Laerm;62591;55.764;37.718;2023-01-09T04:55:10;49.42;44.68;60.86;;
74234;Laerm;62591;55.764;37.718;2023-01-09T04:57:39;49.19;43.40;70.45;;
74234;Laerm;62591;55.764;37.718;2023-01-09T05:00:09;52.05;44.79;70.63;;
74234;Laerm;62591;55.764;37.718;2023-01-09T05:02:39;51.49;43.48;67.15;;
74234;Laerm;62591;55.764;37.718;2023-01-09T05:05:08;48.54;42.79;61.00;;
74234;Laerm;62591;55.764;37.718;2023-01-09T05:07:38;48.07;41.28;59.08;;
74234;Laerm;62591;55.764;37.718;2023-01-09T05:10:09;49.79;42.92;58.80;;
74234;Laerm;62591;55.764;37.718;2023-01-09T05:12:38;48.99;42.37;65.34;;
74234;Laerm;62591;55.764;37.718;2023-01-09T05:15:09;47.51;41.00;56.83;;
74234;Laerm;62591;55.764;37.718;2023-01-09T05:17:38;50.99;41.87;65.21;;
74234;Laerm;62591;55.764;37.718;2023-01-09T05:20:07;47.95;41.97;58.29;;
74234;Laerm;62591;55.764;37.718;2023-01-09T05:22:36;51.48;41.32;60.96;;
74234;Laerm;62591;55.764;37.718;2023-01-09T05:25:05;47.45;42.29;56.71;;
74234;Laerm;62591;55.764;37.718;2023-01-09T05:27:34;48.46;42.35;58.93;;
74234;Laerm;62591;55.764;37.718;2023-01-09T05:30:05;47.77;41.29;59.73;;
74234;Laerm;62591;55.764;37.718;2023-01-09T05:32:35;48.75;42.08;61.19;;
74234;Laerm;62591;55.764;37.718;2023-01-09T05:35:04;46.82;41.41;57.96;;
74234;Laerm;62591;55.764;37.718;2023-01-09T05:37:33;49.67;41.69;67.83;;
74234;Laerm;62591;55.764;37.718;2023-01-09T05:40:01;48.07;42.05;56.77;;
74234;Laerm;62591;55.764;37.718;2023-01-09T05:42:30;50.09;42.67;64.32;;
74234;Laerm;62591;55.764;37.718;2023-01-09T05:44:59;51.44;43.09;76.44;;
74234;Laerm;62591;55.764;37.718;2023-01-09T05:47:29;49.85;42.97;67.22;;
74234;Laerm;62591;55.764;37.718;2023-01-09T05:49:59;49.53;43.21;65.08;;
74234;Laerm;62591;55.764;37.718;2023-01-09T05:52:29;48.00;41.85;61.16;;
74234;Laerm;62591;55.764;37.718;2023-01-09T05:54:57;47.11;41.72;56.67;;
74234;Laerm;62591;55.764;37.718;2023-01-09T05:57:26;47.81;43.01;59.96;;
74234;Laerm;62591;55.764;37.718;2023-01-09T05:59:56;49.52;42.99;62.25;;
74234;Laerm;62591;55.764;37.718;2023-01-09T06:02:27;46.72;41.15;52.27;;
74234;Laerm;62591;55.764;37.718;2023-01-09T06:04:58;49.21;42.73;61.80;;
74234;Laerm;62591;55.764;37.718;2023-01-09T06:07:27;51.03;44.01;68.01;;
74234;Laerm;62591;55.764;37.718;2023-01-09T06:09:55;47.41;43.02;52.62;;
74234;Laerm;62591;55.764;37.718;2023-01-09T06:12:24;51.77;43.30;62.12;;
74234;Laerm;62591;55.764;37.718;2023-01-09T06:14:52;52.63;43.21;71.23;;
74234;Laerm;62591;55.764;37.718;2023-01-09T06:17:21;47.27;42.68;56.21;;
74234;Laerm;62591;55.764;37.718;2023-01-09T06:19:49;48.35;42.17;57.95;;
74234;Laerm;62591;55.764;37.718;2023-01-09T06:22:20;48.24;41.02;57.37;;
74234;Laerm;62591;55.764;37.718;2023-01-09T06:24:48;48.36;40.63;62.66;;
74234;Laerm;62591;55.764;37.718;2023-01-09T06:27:17;49.71;46.02;56.26;;
74234;Laerm;62591;55.764;37.718;2023-01-09T06:29:45;52.08;44.41;73.50;;
74234;Laerm;62591;55.764;37.718;2023-01-09T06:32:14;48.11;44.58;57.61;;
74234;Laerm;62591;55.764;37.718;2023-01-09T06:34:42;51.45;42.26;61.20;;
74234;Laerm;62591;55.764;37.718;2023-01-09T06:37:11;49.20;41.99;62.69;;
74234;Laerm;62591;55.764;37.718;2023-01-09T06:39:44;68.66;45.21;79.29;;
74234;Laerm;62591;55.764;37.718;2023-01-09T06:42:13;56.83;42.92;71.59;;
74234;Laerm;62591;55.764;37.718;2023-01-09T06:44:42;48.28;42.91;58.05;;
74234;Laerm;62591;55.764;37.718;2023-01-09T06:47:10;51.76;44.57;63.37;;
74234;Laerm;62591;55.764;37.718;2023-01-09T06:49:39;52.72;44.17;62.91;;
74234;Laerm;62591;55.764;37.718;2023-01-09T06:52:07;50.96;42.16;59.55;;
74234;Laerm;62591;55.764;37.718;2023-01-09T06:54:36;47.25;41.02;57.40;;
74234;Laerm;62591;55.764;37.718;2023-01-09T06:57:06;48.90;41.81;61.37;;
74234;Laerm;62591;55.764;37.718;2023-01-09T06:59:34;47.60;41.22;63.62;;
74234;Laerm;62591;55.764;37.718;2023-01-09T07:02:03;47.82;40.47;58.81;;
74234;Laerm;62591;55.764;37.718;2023-01-09T07:04:32;50.72;42.17;63.35;;
74234;Laerm;62591;55.764;37.718;2023-01-09T07:07:00;47.60;41.91;60.31;;
74234;Laerm;62591;55.764;37.718;2023-01-09T07:09:29;48.61;41.86;57.97;;
74234;Laerm;62591;55.764;37.718;2023-01-09T07:11:57;46.49;39.91;62.34;;
74234;Laerm;62591;55.764;37.718;2023-01-09T07:14:27;45.74;41.40;51.28;;
74234;Laerm;62591;55.764;37.718;2023-01-09T07:16:56;47.04;42.86;55.98;;
74234;Laerm;62591;55.764;37.718;2023-01-09T07:19:25;52.06;42.40;63.02;;
74234;Laerm;62591;55.764;37.718;2023-01-09T07:21:53;54.24;48.03;63.86;;
74234;Laerm;62591;55.764;37.718;2023-01-09T07:24:22;51.45;49.08;55.86;;
74234;Laerm;62591;55.764;37.718;2023-01-09T07:26:51;54.09;49.23;74.35;;
74234;Laerm;62591;55.764;37.718;2023-01-09T07:29:19;55.33;50.52;66.51;;
74234;Laerm;62591;55.764;37.718;2023-01-09T07:31:49;50.46;47.89;61.11;;
74234;Laerm;62591;55.764;37.718;2023-01-09T07:34:18;53.13;47.90;69.45;;
74234;Laerm;62591;55.764;37.718;2023-01-09T07:36:46;56.93;51.30;62.35;;
74234;Laerm;62591;55.764;37.718;2023-01-09T07:39:16;56.19;51.51;66.12;;
74234;Laerm;62591;55.764;37.718;2023-01-09T07:41:45;56.49;53.70;66.47;;
74234;Laerm;62591;55.764;37.718;2023-01-09T07:44:14;53.43;46.50;61.22;;
74234;Laerm;62591;55.764;37.718;2023-01-09T07:46:43;55.40;51.84;65.09;;
74234;Laerm;62591;55.764;37.718;2023-01-09T07:49:13;55.21;51.97;64.13;;
74234;Laerm;62591;55.764;37.718;2023-01-09T07:51:42;54.54;51.35;63.31;;
74234;Laerm;62591;55.764;37.718;2023-01-09T07:54:11;54.76;51.65;63.92;;
74234;Laerm;62591;55.764;37.718;2023-01-09T07:56:40;57.20;51.83;66.59;;
74234;Laerm;62591;55.764;37.718;2023-01-09T07:59:09;56.43;49.84;64.51;;
74234;Laerm;62591;55.764;37.718;2023-01-09T08:01:37;52.01;45.72;73.08;;
74234;Laerm;62591;55.764;37.718;2023-01-09T08:04:06;53.50;45.45;68.21;;
74234;Laerm;62591;55.764;37.718;2023-01-09T08:06:36;49.95;44.77;60.90;;
74234;Laerm;62591;55.764;37.718;2023-01-09T08:09:05;50.98;42.13;59.31;;
74234;Laerm;62591;55.764;37.718;2023-01-09T08:11:33;46.67;40.61;56.66;;
74234;Laerm;62591;55.764;37.718;2023-01-09T08:14:02;49.87;41.88;61.38;;
74234;Laerm;62591;55.764;37.718;2023-01-09T08:16:31;45.85;40.65;51.37;;
74234;Laerm;62591;55.764;37.718;2023-01-09T08:19:00;48.93;41.47;64.53;;
74234;Laerm;62591;55.764;37.718;2023-01-09T08:21:29;46.75;41.57;54.98;;
74234;Laerm;62591;55.764;37.718;2023-01-09T08:23:59;48.43;41.82;61.38;;
74234;Laerm;62591;55.764;37.718;2023-01-09T08:26:28;47.80;40.22;62.36;;
74234;Laerm;62591;55.764;37.718;2023-01-09T08:28:57;45.48;39.62;50.63;;
74234;Laerm;62591;55.764;37.718;2023-01-09T08:31:25;46.09;40.95;62.75;;
74234;Laerm;62591;55.764;37.718;2023-01-09T08:33:54;45.41;40.48;54.80;;
74234;Laerm;62591;55.764;37.718;2023-01-09T08:36:23;45.69;41.18;55.07;;
74234;Laerm;62591;55.764;37.718;2023-01-09T08:38:51;46.99;41.16;58.88;;
74234;Laerm;62591;55.764;37.718;2023-01-09T08:41:21;45.46;40.43;54.69;;
74234;Laerm;62591;55.764;37.718;2023-01-09T08:44:07;45.69;40.40;60.35;;
74234;Laerm;62591;55.764;37.718;2023-01-09T08:46:53;46.87;41.46;58.20;;
74234;Laerm;62591;55.764;37.718;2023-01-09T08:49:35;51.16;43.41;65.66;;
74234;Laerm;62591;55.764;37.718;2023-01-09T08:52:05;48.75;43.96;60.50;;
74234;Laerm;62591;55.764;37.718;2023-01-09T08:54:33;46.52;42.04;56.76;;
74234;Laerm;62591;55.764;37.718;2023-01-09T08:57:06;47.79;42.50;63.20;;
74234;Laerm;62591;55.764;37.718;2023-01-09T08:59:35;49.18;44.16;59.66;;
74234;Laerm;62591;55.764;37.718;2023-01-09T09:02:04;48.52;43.91;58.08;;
74234;Laerm;62591;55.764;37.718;2023-01-09T09:04:32;46.09;41.53;53.10;;
74234;Laerm;62591;55.764;37.718;2023-01-09T09:07:04;47.00;42.04;53.59;;
74234;Laerm;62591;55.764;37.718;2023-01-09T09:09:32;47.20;42.30;58.07;;
74234;Laerm;62591;55.764;37.718;2023-01-09T09:12:01;53.93;42.98;75.31;;
74234;Laerm;62591;55.764;37.718;2023-01-09T09:14:31;49.48;43.24;58.50;;
74234;Laerm;62591;55.764;37.718;2023-01-09T09:17:17;50.65;42.40;58.69;;
74234;Laerm;62591;55.764;37.718;2023-01-09T09:19:45;47.53;42.18;56.65;;
74234;Laerm;62591;55.764;37.718;2023-01-09T09:22:14;49.85;43.26;60.26;;
74234;Laerm;62591;55.764;37.718;2023-01-09T09:24:42;47.25;43.18;56.05;;
74234;Laerm;62591;55.764;37.718;2023-01-09T09:27:11;48.51;41.80;57.78;;
74234;Laerm;62591;55.764;37.718;2023-01-09T09:29:41;46.04;41.71;52.62;;
74234;Laerm;62591;55.764;37.718;2023-01-09T09:32:10;47.27;42.55;60.64;;
74234;Laerm;62591;55.764;37.718;2023-01-09T09:34:39;47.41;42.86;58.89;;
74234;Laerm;62591;55.764;37.718;2023-01-09T09:37:07;46.74;41.86;58.49;;
74234;Laerm;62591;55.764;37.718;2023-01-09T09:39:36;47.24;42.76;59.24;;
74234;Laerm;62591;55.764;37.718;2023-01-09T09:42:16;49.33;41.83;68.23;;
74234;Laerm;62591;55.764;37.718;2023-01-09T09:45:21;47.58;41.97;61.49;;
74234;Laerm;62591;55.764;37.718;2023-01-09T09:48:01;48.19;42.33;56.77;;
74234;Laerm;62591;55.764;37.718;2023-01-09T09:51:04;48.55;43.30;56.22;;
74234;Laerm;62591;55.764;37.718;2023-01-09T09:53:40;47.33;42.37;63.85;;
74234;Laerm;62591;55.764;37.718;2023-01-09T09:56:12;46.49;42.16;52.52;;
74234;Laerm;62591;55.764;37.718;2023-01-09T09:58:44;47.93;42.41;59.11;;
74234;Laerm;62591;55.764;37.718;2023-01-09T10:01:17;47.01;42.35;58.00;;
74234;Laerm;62591;55.764;37.718;2023-01-09T10:03:50;49.27;43.86;63.40;;
74234;Laerm;62591;55.764;37.718;2023-01-09T10:06:25;46.79;41.90;54.99;;
74234;Laerm;62591;55.764;37.718;2023-01-09T10:09:01;48.83;42.46;59.98;;
74234;Laerm;62591;55.764;37.718;2023-01-09T10:11:36;49.70;42.79;66.29;;
74234;Laerm;62591;55.764;37.718;2023-01-09T10:14:08;49.83;42.85;57.16;;
74234;Laerm;62591;55.764;37.718;2023-01-09T10:17:08;47.89;42.12;55.15;;
74234;Laerm;62591;55.764;37.718;2023-01-09T10:20:04;48.92;40.77;59.88;;
74234;Laerm;62591;55.764;37.718;2023-01-09T10:22:40;47.27;41.99;59.32;;
74234;Laerm;62591;55.764;37.718;2023-01-09T10:25:20;47.65;42.29;60.49;;
74234;Laerm;62591;55.764;37.718;2023-01-09T10:28:03;46.69;40.34;59.83;;
74234;Laerm;62591;55.764;37.718;2023-01-09T10:30:40;50.78;40.24;64.64;;
74234;Laerm;62591;55.764;37.718;2023-01-09T10:33:25;47.28;40.49;63.01;;
74234;Laerm;62591;55.764;37.718;2023-01-09T10:36:17;47.82;41.02;57.53;;
74234;Laerm;62591;55.764;37.718;2023-01-09T10:38:51;48.28;41.20;62.71;;
74234;Laerm;62591;55.764;37.718;2023-01-09T10:41:24;45.87;41.02;54.70;;
74234;Laerm;62591;55.764;37.718;2023-01-09T10:44:00;46.00;41.61;52.49;;
74234;Laerm;62591;55.764;37.718;2023-01-09T10:46:34;47.61;40.28;59.44;;
74234;Laerm;62591;55.764;37.718;2023-01-09T10:49:09;46.86;40.89;54.40;;
74234;Laerm;62591;55.764;37.718;2023-01-09T10:51:45;45.13;40.00;54.80;;
74234;Laerm;62591;55.764;37.718;2023-01-09T10:54:17;47.84;44.17;61.84;;
74234;Laerm;62591;55.764;37.718;2023-01-09T10:56:56;48.78;44.92;55.94;;
74234;Laerm;62591;55.764;37.718;2023-01-09T10:59:27;47.93;43.57;57.08;;
74234;Laerm;62591;55.764;37.718;2023-01-09T11:01:57;48.18;43.37;60.93;;
74234;Laerm;62591;55.764;37.718;2023-01-09T11:04:30;56.04;44.79;73.79;;
74234;Laerm;62591;55.764;37.718;2023-01-09T11:07:03;57.33;42.69;73.62;;
74234;Laerm;62591;55.764;37.718;2023-01-09T11:09:54;50.72;42.62;73.66;;
74234;Laerm;62591;55.764;37.718;2023-01-09T11:12:25;47.67;42.38;54.75;;
74234;Laerm;62591;55.764;37.718;2023-01-09T11:14:54;50.35;43.41;62.27;;
74234;Laerm;62591;55.764;37.718;2023-01-09T11:17:25;50.21;43.01;62.96;;
74234;Laerm;62591;55.764;37.718;2023-01-09T11:20:04;48.80;42.39;58.65;;
74234;Laerm;62591;55.764;37.718;2023-01-09T11:22:43;48.50;42.21;64.39;;
74234;Laerm;62591;55.764;37.718;2023-01-09T11:25:15;49.80;43.07;66.19;;
74234;Laerm;62591;55.764;37.718;2023-01-09T11:28:03;46.37;41.32;54.25;;
74234;Laerm;62591;55.764;37.718;2023-01-09T11:30:33;45.40;40.72;55.97;;
74234;Laerm;62591;55.764;37.718;2023-01-09T11:33:13;48.37;42.91;56.60;;
74234;Laerm;62591;55.764;37.718;2023-01-09T11:35:55;48.32;41.06;62.58;;
74234;Laerm;62591;55.764;37.718;2023-01-09T11:38:24;49.06;40.75;60.45;;
74234;Laerm;62591;55.764;37.718;2023-01-09T11:40:55;47.60;41.99;59.85;;
74234;Laerm;62591;55.764;37.718;2023-01-09T11:43:31;47.63;43.15;61.58;;
74234;Laerm;62591;55.764;37.718;2023-01-09T11:46:03;48.29;41.29;57.89;;
74234;Laerm;62591;55.764;37.718;2023-01-09T11:48:38;48.18;41.30;65.37;;
74234;Laerm;62591;55.764;37.718;2023-01-09T11:51:20;47.85;42.38;59.51;;
74234;Laerm;62591;55.764;37.718;2023-01-09T11:54:11;48.14;42.10;61.68;;
74234;Laerm;62591;55.764;37.718;2023-01-09T11:56:42;47.29;40.48;65.22;;
74234;Laerm;62591;55.764;37.718;2023-01-09T11:59:13;46.25;40.45;57.63;;
74234;Laerm;62591;55.764;37.718;2023-01-09T12:02:03;46.72;41.57;63.23;;
74234;Laerm;62591;55.764;37.718;2023-01-09T12:04:36;46.08;40.34;60.86;;
74234;Laerm;62591;55.764;37.718;2023-01-09T12:10:20;49.62;43.83;62.80;;
74234;Laerm;62591;55.764;37.718;2023-01-09T12:12:57;47.76;42.64;69.35;;
74234;Laerm;62591;55.764;37.718;2023-01-09T12:15:34;50.86;41.73;72.54;;
74234;Laerm;62591;55.764;37.718;2023-01-09T12:18:18;46.29;41.24;61.37;;
74234;Laerm;62591;55.764;37.718;2023-01-09T12:21:11;49.44;43.20;59.52;;
74234;Laerm;62591;55.764;37.718;2023-01-09T12:23:56;48.43;42.25;56.82;;
74234;Laerm;62591;55.764;37.718;2023-01-09T12:26:36;50.26;42.98;59.74;;
74234;Laerm;62591;55.764;37.718;2023-01-09T12:29:28;50.64;43.24;72.59;;
74234;Laerm;62591;55.764;37.718;2023-01-09T12:32:21;49.50;42.52;59.32;;
74234;Laerm;62591;55.764;37.718;2023-01-09T12:34:59;47.08;41.92;60.92;;
74234;Laerm;62591;55.764;37.718;2023-01-09T12:37:43;50.28;42.33;65.62;;
74234;Laerm;62591;55.764;37.718;2023-01-09T12:40:34;47.85;41.67;64.88;;
74234;Laerm;62591;55.764;37.718;2023-01-09T12:43:13;48.39;42.26;58.68;;
74234;Laerm;62591;55.764;37.718;2023-01-09T12:45:56;47.86;43.02;54.45;;
74234;Laerm;62591;55.764;37.718;2023-01-09T12:48:40;47.50;41.63;53.80;;
74234;Laerm;62591;55.764;37.718;2023-01-09T12:51:20;47.51;41.67;64.27;;
74234;Laerm;62591;55.764;37.718;2023-01-09T12:53:58;47.72;42.36;54.87;;
74234;Laerm;62591;55.764;37.718;2023-01-09T12:56:33;47.35;42.44;59.64;;
74234;Laerm;62591;55.764;37.718;2023-01-09T12:59:10;48.70;43.13;56.14;;
74234;Laerm;62591;55.764;37.718;2023-01-09T13:01:45;47.65;42.20;58.61;;
74234;Laerm;62591;55.764;37.718;2023-01-09T13:04:20;50.17;42.20;66.00;;
74234;Laerm;62591;55.764;37.718;2023-01-09T13:06:54;49.08;41.91;59.27;;
74234;Laerm;62591;55.764;37.718;2023-01-09T13:09:31;51.44;41.82;67.10;;
74234;Laerm;62591;55.764;37.718;2023-01-09T13:12:14;47.28;41.09;56.28;;
74234;Laerm;62591;55.764;37.718;2023-01-09T13:14:50;46.11;41.08;58.28;;
74234;Laerm;62591;55.764;37.718;2023-01-09T13:17:24;47.05;41.83;53.00;;
74234;Laerm;62591;55.764;37.718;2023-01-09T13:19:53;47.63;42.27;58.89;;
74234;Laerm;62591;55.764;37.718;2023-01-09T13:22:25;46.25;42.11;57.42;;
74234;Laerm;62591;55.764;37.718;2023-01-09T13:25:15;46.97;42.25;54.75;;
74234;Laerm;62591;55.764;37.718;2023-01-09T13:27:54;47.08;41.58;60.41;;
74234;Laerm;62591;55.764;37.718;2023-01-09T13:30:35;48.57;40.96;58.92;;
74234;Laerm;62591;55.764;37.718;2023-01-09T13:33:15;48.26;42.24;58.64;;
74234;Laerm;62591;55.764;37.718;2023-01-09T13:35:48;47.88;41.36;57.11;;
74234;Laerm;62591;55.764;37.718;2023-01-09T13:38:22;49.39;41.59;58.46;;
74234;Laerm;62591;55.764;37.718;2023-01-09T13:41:09;46.77;41.62;64.42;;
74234;Laerm;62591;55.764;37.718;2023-01-09T13:43:59;46.92;40.93;59.86;;
74234;Laerm;62591;55.764;37.718;2023-01-09T13:46:36;47.41;41.15;58.41;;
74234;Laerm;62591;55.764;37.718;2023-01-09T13:52:30;49.36;43.10;60.31;;
74234;Laerm;62591;55.764;37.718;2023-01-09T13:55:27;49.09;43.01;58.69;;
74234;Laerm;62591;55.764;37.718;2023-01-09T13:58:21;49.27;41.78;61.81;;
74234;Laerm;62591;55.764;37.718;2023-01-09T14:00:58;48.78;42.65;62.23;;
74234;Laerm;62591;55.764;37.718;2023-01-09T14:03:35;45.96;41.44;57.55;;
74234;Laerm;62591;55.764;37.718;2023-01-09T14:06:14;47.86;42.65;62.94;;
74234;Laerm;62591;55.764;37.718;2023-01-09T14:08:46;49.03;41.24;58.23;;
74234;Laerm;62591;55.764;37.718;2023-01-09T14:11:22;47.75;43.32;56.49;;